ETHN 200020Z 13004KT 9999 FEW040 BKN370 15/14 Q1023 BLU+ ETHN 192320Z 17008KT 9999 SCT040 BKN220 16/14 Q1023 BLU+ ETHN 192220Z 14007KT 9999 FEW040 BKN300 15/14 Q1022 BLU+ ETHN 192120Z 15005KT 9999 FEW050 BKN240 15/14 Q1022 BLU+ ETHN 192030Z 10006KT 9999 SCT050CB BKN260 15/14 Q1022 BLU+FCST CNL ETHN 192020Z 08008KT 9999 SCT050CB BKN260 15/14 Q1022 RETSRA BLU+BLU+ TEMPO AMB ETHN 191945Z 08014KT 8000 -TSRA FEW010 BKN040CB 15/14 Q1023 RESHRA BLU BLU+ TEMPO AMB ETHN 191937Z 08015KT 4500 -TSRA BR FEW010 BKN040CB 15/14 Q1023 RESHRA GRN BLU+ TEMPO AMB ETHN 191928Z 32005KT 1500 R25////// +TSRAGR FEW015 BKN060CB BKN220 18/14 Q1025 AMB BLU+ TEMPO AMB ETHN 191920Z 15008KT 5000 TSRA BKN060CB BKN220 18/14 Q1024 WHT BLU+ TEMPO YLO ETHN 191918Z 14010KT 5000 TSRA BKN070CB BKN220 18/14 Q1024 WHT BLU+ TEMPO YLO ETHN 191837Z 34018G42KT 9999 TS BKN070CB BKN220 23/12 Q1021 BLU BLU+ TEMPO YLO ETHN 191833Z 33010G42KT 9999 SCT070CB BKN220 25/14 Q1021 BLU+BLU+ TEMPO YLO ETHN 191820Z 33005KT 9999 SCT070CB BKN380 26/14 Q1021 BLU+BLU+ ETHN 191720Z 29006KT 9999 FEW060CB BKN280 27/14 Q1020 BLU+BLU+ ETHN 191620Z 25005KT 9999 FEW060CB BKN280 27/14 Q1020 BLU+BLU+ ETHN 191520Z 24005KT 9999 FEW060CB BKN290 28/13 Q1020 BLU+BLU+ ETHN 191420Z 27006KT 9999 FEW060TCU BKN290 28/14 Q1020 BLU+BLU+ ETHN 191320Z 26005KT 9999 FEW060TCU BKN260 27/14 Q1021 BLU+BLU+ ETHN 191220Z 27005KT 9999 FEW060 BKN290 26/11 Q1021 BLU+BLU+ ETHN 191120Z 24003KT 9999 BKN310 26/11 Q1021 BLU+BLU+ ETHN 191020Z 24006KT 9999 BKN320 25/12 Q1022 BLU+BLU+ ETHN 190920Z 14007KT 9999 BKN320 23/11 Q1022 BLU+BLU+ ETHN 190820Z 16005KT 9999 BKN340 22/10 Q1022 BLU+BLU+ ETHN 190720Z 16006KT 9999 BKN340 19/08 Q1022 BLU+BLU+ ETHN 190620Z 14010KT 9999 BKN280 16/08 Q1022 BLU+BLU+ ETHN 190520Z 13009KT 9999 BKN290 14/06 Q1022 BLU+BLU+ ETHN 190420Z 13005KT 9999 BKN280 13/05 Q1022 BLU+BLU+ ETHN 190320Z 12008KT 9999 BKN280 12/06 Q1022 BLU+ ETHN 190220Z 14008KT 9999 BKN280 14/07 Q1022 BLU+ ETHN 190120Z 13009KT 9999 BKN280 15/07 Q1022 BLU+ ETHN 190020Z 13009KT 9999 BKN330 15/08 Q1022 BLU+ ETHN 182320Z 14008KT 9999 BKN330 15/09 Q1023 BLU+ ETHN 182300Z 14009KT 9999 BKN380 16/09 Q1023 BLU+FCST CNL ETHN 182220Z 13010KT 9999 BKN390 16/09 Q1023 BLU+BLU+ ETHN 182120Z 13009KT 9999 SCT380 17/11 Q1023 BLU+BLU+ ETHN 182020Z 13008KT 9999 FEW380 18/11 Q1023 BLU+BLU+ ETHN 181920Z 12008KT 9999 SCT380 19/11 Q1023 BLU+BLU+ ETHN 181820Z 12006KT 9999 SCT360 21/11 Q1023 BLU+BLU+ ETHN 181720Z 12006KT 9999 FEW060 BKN360 23/12 Q1023 BLU+BLU+ ETHN 181620Z 12007KT 9999 FEW060 SCT360 24/11 Q1023 BLU+BLU+ ETHN 181520Z 11005KT 9999 FEW058 25/12 Q1023 BLU+BLU+ ETHN 181420Z 13007KT 9999 FEW057 25/13 Q1023 BLU+BLU+ ETHN 181320Z 15009KT 9999 FEW056 SCT340 25/12 Q1023 BLU+BLU+

METAR Messwerte "NIEDERSTETTEN (G" ETHN

Zurück zur Übersicht

Ortsname
Ländercode / m ü. NN
Zeit Temperatur Taupunkt Rel.
Luftfeuchte
Luftdruck:
Altimeter
NN
Station
Wind in Beaufort
(Knoten)
Sichtweite
(Meter)
Wolken
(Meter über Grund)
Wettererscheinung
NIEDERSTETTEN (G
DE 466
Fr 20.05. 02:20151494 %1023
1023
968
SO 2 (4)>= 10000Stark bewölkt (11000)
Leicht bewölkt (1200)
 
NIEDERSTETTEN (G
DE 466
Fr 20.05. 01:20161488 %1023
1023
968
S 3 (8)>= 10000Stark bewölkt (6700)
Wolkig (1200)
 
NIEDERSTETTEN (G
DE 466
Fr 20.05. 00:20151494 %1022
1022
967
SO 3 (7)>= 10000Stark bewölkt (9100)
Leicht bewölkt (1200)
 
NIEDERSTETTEN (G
DE 466
Do 19.05. 23:20151494 %1022
1022
967
SSO 2 (5)>= 10000Stark bewölkt (7300)
Leicht bewölkt (1500)
 
NIEDERSTETTEN (G
DE 466
Do 19.05. 22:30151494 %1022
1022
967
O 2 (6)>= 10000Stark bewölkt (7900)
Wolkig Cb (1500)
 
NIEDERSTETTEN (G
DE 466
Do 19.05. 22:20151494 %1022
1022
967
O 3 (8)>= 10000Stark bewölkt (7900)
Wolkig Cb (1500)
 
NIEDERSTETTEN (G
DE 466
Do 19.05. 21:45151494 %1023
1023
968
O 4 (14)8000Stark bewölkt Cb (1200)
Leicht bewölkt (300)
Gewitter mit Regen (schwach)
NIEDERSTETTEN (G
DE 466
Do 19.05. 21:37151494 %1023
1023
968
O 4 (15)4500Stark bewölkt Cb (1200)
Leicht bewölkt (300)
Gewitter mit Regen (schwach)
Nebeldunst
NIEDERSTETTEN (G
DE 466
Do 19.05. 21:28181477 %1025
1025
970
NW 2 (5)1500Stark bewölkt (6700)
Stark bewölkt Cb (1800)
Leicht bewölkt (460)
Gewitter mit Regen/Hagel (stark)
NIEDERSTETTEN (G
DE 466
Do 19.05. 21:20181477 %1024
1024
969
SSO 3 (8)5000Stark bewölkt (6700)
Stark bewölkt Cb (1800)
Gewitter mit Regen
NIEDERSTETTEN (G
DE 466
Do 19.05. 21:18181477 %1024
1024
969
SO 3 (10)5000Stark bewölkt (6700)
Stark bewölkt Cb (2100)
Gewitter mit Regen
NIEDERSTETTEN (G
DE 466
Do 19.05. 20:37231250 %1021
1020
966
NNW 5 (18) - 9 (42)>= 10000Stark bewölkt (6700)
Stark bewölkt Cb (2100)
 
NIEDERSTETTEN (G
DE 466
Do 19.05. 20:33251450 %1021
1019
966
NNW 3 (10) - 9 (42)>= 10000Stark bewölkt (6700)
Wolkig Cb (2100)
 
NIEDERSTETTEN (G
DE 466
Do 19.05. 20:20261448 %1021
1019
966
NNW 2 (5)>= 10000Stark bewölkt (12000)
Wolkig Cb (2100)
 
NIEDERSTETTEN (G
DE 466
Do 19.05. 19:20271445 %1020
1018
965
WNW 2 (6)>= 10000Stark bewölkt (8500)
Leicht bewölkt Cb (1800)
 
NIEDERSTETTEN (G
DE 466
Do 19.05. 18:20271445 %1020
1018
965
WSW 2 (5)>= 10000Stark bewölkt (8500)
Leicht bewölkt Cb (1800)
 
NIEDERSTETTEN (G
DE 466
Do 19.05. 17:20281340 %1020
1018
965
WSW 2 (5)>= 10000Stark bewölkt (8800)
Leicht bewölkt Cb (1800)
 
NIEDERSTETTEN (G
DE 466
Do 19.05. 16:20281442 %1020
1018
965
W 2 (6)>= 10000Stark bewölkt (8800)
Leicht bewölkt (1800)
 
NIEDERSTETTEN (G
DE 466
Do 19.05. 15:20271445 %1021
1019
966
W 2 (5)>= 10000Stark bewölkt (7900)
Leicht bewölkt (1800)
 
NIEDERSTETTEN (G
DE 466
Do 19.05. 14:20261139 %1021
1019
966
W 2 (5)>= 10000Stark bewölkt (8800)
Leicht bewölkt (1800)
 
NIEDERSTETTEN (G
DE 466
Do 19.05. 13:20261139 %1021
1019
966
WSW 2 (3)>= 10000Stark bewölkt (9400) 
NIEDERSTETTEN (G
DE 466
Do 19.05. 12:20251244 %1022
1020
967
WSW 2 (6)>= 10000Stark bewölkt (9800) 
NIEDERSTETTEN (G
DE 466
Do 19.05. 11:20231147 %1022
1021
967
SO 3 (7)>= 10000Stark bewölkt (9800) 
NIEDERSTETTEN (G
DE 466
Do 19.05. 10:20221046 %1022
1021
967
SSO 2 (5)>= 10000Stark bewölkt (10000) 
NIEDERSTETTEN (G
DE 466
Do 19.05. 09:2019849 %1022
1021
967
SSO 2 (6)>= 10000Stark bewölkt (10000) 
NIEDERSTETTEN (G
DE 466
Do 19.05. 08:2016859 %1022
1022
967
SO 3 (10)>= 10000Stark bewölkt (8500) 
NIEDERSTETTEN (G
DE 466
Do 19.05. 07:2014658 %1022
1022
967
SO 3 (9)>= 10000Stark bewölkt (8800) 
NIEDERSTETTEN (G
DE 466
Do 19.05. 06:2013558 %1022
1022
967
SO 2 (5)>= 10000Stark bewölkt (8500) 
NIEDERSTETTEN (G
DE 466
Do 19.05. 05:2012667 %1022
1023
967
OSO 3 (8)>= 10000Stark bewölkt (8500) 
NIEDERSTETTEN (G
DE 466
Do 19.05. 04:2014763 %1022
1022
967
SO 3 (8)>= 10000Stark bewölkt (8500) 
NIEDERSTETTEN (G
DE 466
Do 19.05. 03:2015759 %1022
1022
967
SO 3 (9)>= 10000Stark bewölkt (8500) 
NIEDERSTETTEN (G
DE 466
Do 19.05. 02:2015863 %1022
1022
967
SO 3 (9)>= 10000Stark bewölkt (10000) 
NIEDERSTETTEN (G
DE 466
Do 19.05. 01:2015967 %1023
1023
968
SO 3 (8)>= 10000Stark bewölkt (10000) 
NIEDERSTETTEN (G
DE 466
Do 19.05. 01:0016963 %1023
1023
968
SO 3 (9)>= 10000Stark bewölkt (12000) 
NIEDERSTETTEN (G
DE 466
Do 19.05. 00:2016963 %1023
1023
968
SO 3 (10)>= 10000Stark bewölkt (12000) 
NIEDERSTETTEN (G
DE 466
Mi 18.05. 23:20171168 %1023
1023
968
SO 3 (9)>= 10000Wolkig (12000) 
NIEDERSTETTEN (G
DE 466
Mi 18.05. 22:20181164 %1023
1023
968
SO 3 (8)>= 10000Leicht bewölkt (12000) 
NIEDERSTETTEN (G
DE 466
Mi 18.05. 21:20191160 %1023
1022
968
OSO 3 (8)>= 10000Wolkig (12000) 
NIEDERSTETTEN (G
DE 466
Mi 18.05. 20:20211153 %1023
1022
968
OSO 2 (6)>= 10000Wolkig (11000) 
NIEDERSTETTEN (G
DE 466
Mi 18.05. 19:20231250 %1023
1022
968
OSO 2 (6)>= 10000Stark bewölkt (11000)
Leicht bewölkt (1800)
 
NIEDERSTETTEN (G
DE 466
Mi 18.05. 18:20241144 %1023
1021
968
OSO 3 (7)>= 10000Wolkig (11000)
Leicht bewölkt (1800)
 
NIEDERSTETTEN (G
DE 466
Mi 18.05. 17:20251244 %1023
1021
968
OSO 2 (5)>= 10000Leicht bewölkt (1800) 
NIEDERSTETTEN (G
DE 466
Mi 18.05. 16:20251347 %1023
1021
968
SO 3 (7)>= 10000Leicht bewölkt (1700) 
NIEDERSTETTEN (G
DE 466
Mi 18.05. 15:20251244 %1023
1021
968
SSO 3 (9)>= 10000Wolkig (10000)
Leicht bewölkt (1700)
 

Altimeter: Einstellung am Altimeter (Höhenmesser), die Höhe 0 muss auf diesen Luftdruckwert zeigen, damit das Gerät die Stationshöhe richtig anzeigt.

NN: Luftdruck reduziert auf "Normal Null", auf Meereshöhe, dieser von der Temperatur abhängige Wert wird bisweilen unkorrekt einfach als "Luftdruck" bezeichnet. Eigentlich nur eine fiktive Größe, die es erlaubt, Stationen auf unterschiedlichen Höhen miteinander zu vergleichen.

Station: Realer Luftdruck an der Station.